Cuca Ranch (214, 682) Station Data

Red Flag Warning: No
Fire Weather Zone: 258
SDGE Region: North East
Lat/Lon: 33.286/-116.897

Observations

Time Wind Speed/Gust Temp(F) RH Fuel Moist Fuel Temp(F) Dewpt(F) Tmax(F) Tmin(F) Accum Precip 10-min Precip SL Press(mb)
6/22 5:00am 100 3 G 4 79° 11% - - 20° 80.7° 76.2° - - 867.0
6/22 4:50am 102 3 G 5 78° 12% - - 21° 80.7° 76.2° - - 867.0
6/22 4:40am 91 4 G 5 78° 12% - - 21° 80.7° 76.2° - - 867.0
6/22 4:30am 90 4 G 5 78° 13% - - 23° 80.7° 76.2° - - 868.0
6/22 4:20am 82 3 G 4 79° 12% - - 21° 80.7° 76.2° - - 867.0
6/22 4:10am 86 5 G 8 78° 13% - - 22° 80.7° 76.2° - - 868.0
6/22 4:00am 100 6 G 8 79° 12% - - 22° 80.7° 76.2° - - 868.0
6/22 3:50am 85 3 G 4 79° 12% - - 22° 80.7° 76.2° - - 868.0
6/22 3:40am 94 3 G 5 79° 12% - - 21° 80.7° 76.2° - - 867.0
6/22 3:30am 87 3 G 5 78° 12% - - 22° 80.7° 76.2° - - 868.0
6/22 3:20am 101 5 G 7 77° 14% - - 23° 80.7° 76.2° - - 868.0
6/22 3:10am 94 3 G 5 78° 13% - - 23° 80.7° 77.5° - - 868.0
6/22 3:00am 102 2 G 3 79° 12% - - 23° 80.7° 77.6° - - 868.0
6/22 2:50am 109 0 G 2 79° 12% - - 23° 80.7° 77.6° - - 868.0
6/22 2:40am 71 1 G 2 79° 12% - - 22° 80.7° 77.6° - - 868.0
6/22 2:30am 105 2 G 4 79° 12% - - 22° 80.7° 77.6° - - 868.0
6/22 2:20am 93 3 G 5 78° 12% - - 22° 80.7° 77.6° - - 868.0
6/22 2:10am 93 4 G 7 78° 13% - - 23° 80.7° 77.6° - - 868.0
6/22 2:00am 84 4 G 6 79° 12% - - 23° 80.7° 77.8° - - 868.0
6/22 1:50am 80 5 G 6 78° 13% - - 23° 80.7° 77.8° - - 868.0
6/22 1:40am 88 5 G 6 79° 15% - - 27° 80.7° 78.4° - - 869.0
6/22 1:30am 86 5 G 6 79° 14% - - 26° 80.7° 78.4° - - 869.0
6/22 1:20am 84 4 G 5 79° 14% - - 27° 80.7° 78.4° - - 869.0
6/22 1:10am 86 4 G 5 79° 17% - - 30° 80.7° 78.4° - - 870.0
6/22 1:00am 88 4 G 5 79° 15% - - 28° 80.7° 78.5° - - 869.0
6/22 12:50am 79 2 G 3 80° 15% - - 28° 80.7° 79.1° - - 869.0
6/22 12:40am 60 2 G 3 80° 15% - - 28° 80.7° 79.1° - - 870.0
6/22 12:30am 86 2 G 3 80° 15% - - 28° 80.7° 79.1° - - 869.0
6/22 12:20am 82 3 G 4 80° 14% - - 27° 80.2° 79.1° - - 869.0
6/22 12:10am 84 4 G 5 79° 16% - - 29° 79.7° 79.1° - - 870.0
6/22 12:00am 74 3 G 4 80° 16% - - 29° 94.1° 78.1° - - 870.0
6/21 11:50pm 76 3 G 4 80° 18% - - 33° 94.1° 78.1° - - 871.0
6/21 11:40pm 86 4 G 5 80° 21% - - 36° 94.1° 78.1° - - 872.0
6/21 11:30pm 88 5 G 7 80° 20% - - 35° 94.1° 78.1° - - 871.0
6/21 11:20pm 86 4 G 5 81° 18% - - 34° 94.1° 78.1° - - 871.0
6/21 11:10pm 88 3 G 4 81° 19% - - 34° 94.1° 78.1° - - 871.0
6/21 11:00pm 99 3 G 4 81° 19% - - 34° 94.1° 78.1° - - 871.0
6/21 10:50pm 86 2 G 3 81° 18% - - 33° 94.1° 78.1° - - 871.0
6/21 10:40pm 101 2 G 3 80° 18% - - 33° 94.1° 78.1° - - 871.0
6/21 10:30pm 93 1 G 1 81° 18% - - 34° 94.1° 78.1° - - 871.0
6/21 10:20pm 93 1 G 1 81° 18% - - 34° 94.1° 78.1° - - 871.0
6/21 10:10pm 64 2 G 3 81° 17% - - 32° 94.1° 78.1° - - 871.0
6/21 10:00pm 78 2 G 3 82° 17% - - 32° 94.1° 78.1° - - 871.0
6/21 9:50pm 64 2 G 3 83° 16% - - 32° 94.1° 78.1° - - 871.0
6/21 9:40pm 72 3 G 4 83° 15% - - 31° 94.1° 78.1° - - 871.0
6/21 9:30pm 81 4 G 4 82° 17% - - 33° 94.1° 78.1° - - 871.0
6/21 9:20pm 74 3 G 3 82° 19% - - 36° 94.1° 78.1° - - 872.0
6/21 9:10pm 81 1 G 2 80° 22% - - 38° 94.1° 78.1° - - 873.0
6/21 9:00pm 98 0 G 1 81° 27% - - 43° 94.1° 78.1° - - 875.0
6/21 8:50pm 130 0 G 2 82° 26% - - 44° 94.1° 78.1° - - 875.0
6/21 8:40pm 76 1 G 2 82° 24% - - 42° 94.1° 78.1° - - 874.0
6/21 8:30pm 73 2 G 3 82° 26% - - 43° 94.1° 78.1° - - 875.0
6/21 8:20pm 72 2 G 3 81° 36% - - 52° 94.1° 78.1° - - 879.0
6/21 8:10pm 76 2 G 3 81° 42% - - 55° 94.1° 78.1° - - 881.0
6/21 8:00pm 100 2 G 3 83° 40% - - 56° 94.1° 78.1° - - 881.0
6/21 7:50pm 133 2 G 2 83° 37% - - 54° 94.1° 78.1° - - 880.0
6/21 7:40pm 157 2 G 3 84° 36% - - 54° 94.1° 78.1° - - 880.0
6/21 7:30pm 220 1 G 2 86° 35% - - 55° 94.1° 78.1° - - 881.0
6/21 7:20pm 280 2 G 4 85° 35% - - 54° 94.1° 78.1° - - 881.0
6/21 7:10pm 271 3 G 4 86° 34% - - 54° 94.1° 78.1° - - 880.0
6/21 7:00pm 279 3 G 5 87° 32% - - 53° 94.1° 78.1° - - 880.0
6/21 6:50pm 271 3 G 5 87° 31% - - 53° 94.1° 78.1° - - 880.0
6/21 6:40pm 280 2 G 4 89° 29% - - 53° 94.1° 78.1° - - 880.0
6/21 6:30pm 268 1 G 2 89° 29% - - 53° 94.1° 78.1° - - 880.0
6/21 6:20pm 260 2 G 4 87° 31% - - 52° 94.1° 78.1° - - 880.0
6/21 6:10pm 259 4 G 7 86° 32% - - 52° 94.1° 78.1° - - 880.0
6/21 6:00pm 262 5 G 9 86° 32% - - 53° 94.1° 78.1° - - 880.0
6/21 5:50pm 254 6 G 10 87° 31% - - 53° 94.1° 78.1° - - 880.0
6/21 5:40pm 256 6 G 9 87° 30% - - 52° 94.1° 78.1° - - 880.0
6/21 5:30pm 251 7 G 10 87° 30% - - 52° 94.1° 78.1° - - 880.0
6/21 5:20pm 259 7 G 12 88° 29% - - 52° 94.1° 78.1° - - 880.0
6/21 5:10pm 273 7 G 10 89° 26% - - 50° 94.1° 78.1° - - 879.0
6/21 5:00pm 267 6 G 10 90° 24% - - 48° 94.1° 78.1° - - 879.0
6/21 4:50pm 267 6 G 10 90° 26% - - 51° 94.1° 78.1° - - 880.0
6/21 4:40pm 280 4 G 8 89° 29% - - 53° 94.1° 78.1° - - 880.0
6/21 4:30pm 274 6 G 10 89° 29% - - 53° 94.1° 78.1° - - 881.0
6/21 4:20pm 274 7 G 11 89° 29% - - 53° 94.1° 78.1° - - 881.0
6/21 4:10pm 268 7 G 10 89° 30% - - 53° 94.1° 78.1° - - 881.0
6/21 4:00pm 268 8 G 12 89° 30% - - 53° 94.1° 78.1° - - 881.0
6/21 3:50pm 277 8 G 13 90° 28% - - 53° 94.1° 78.1° - - 881.0
6/21 3:40pm 264 7 G 12 90° 28% - - 53° 94.1° 78.1° - - 881.0
6/21 3:30pm 270 7 G 12 91° 27% - - 52° 94.1° 78.1° - - 881.0
6/21 3:20pm 257 7 G 13 91° 27% - - 52° 94.1° 78.1° - - 881.0
6/21 3:10pm 257 7 G 12 91° 27% - - 52° 94.1° 78.1° - - 881.0
6/21 3:00pm 256 8 G 12 91° 27% - - 53° 94.1° 78.1° - - 881.0
6/21 2:50pm 263 6 G 11 91° 28% - - 53° 94.1° 78.1° - - 881.0
6/21 2:40pm 255 7 G 12 91° 29% - - 54° 94.1° 78.1° - - 881.0
6/21 2:30pm 274 6 G 12 92° 29% - - 54° 94.1° 78.1° - - 881.0
6/21 2:20pm 280 6 G 13 92° 29% - - 54° 94.1° 78.1° - - 881.0
6/21 2:10pm 260 8 G 13 91° 28% - - 54° 94.1° 78.1° - - 881.0
6/21 2:00pm 251 8 G 13 92° 27% - - 53° 94.1° 78.1° - - 881.0
6/21 1:50pm 282 6 G 13 93° 26% - - 53° 94.1° 78.1° - - 880.0
6/21 1:40pm 270 8 G 13 93° 25% - - 52° 93.8° 78.1° - - 880.0
6/21 1:30pm 261 7 G 13 93° 24% - - 50° 93.8° 78.1° - - 880.0
6/21 1:20pm 251 8 G 13 93° 24% - - 50° 93.8° 78.1° - - 880.0
6/21 1:10pm 255 7 G 11 93° 23% - - 50° 93.8° 78.1° - - 879.0
6/21 1:00pm 284 6 G 10 93° 24% - - 50° 93.8° 78.1° - - 879.0
6/21 12:50pm 273 7 G 11 92° 24% - - 50° 92.6° 78.1° - - 879.0
6/21 12:40pm 275 6 G 11 92° 24% - - 50° 92.6° 78.1° - - 879.0
6/21 12:30pm 268 6 G 10 92° 24% - - 50° 92.6° 78.1° - - 879.0
6/21 12:20pm 272 6 G 11 92° 23% - - 49° 92.6° 78.1° - - 879.0
6/21 12:10pm 276 6 G 9 92° 22% - - 48° 92.2° 78.1° - - 878.0
6/21 12:00pm 269 6 G 9 92° 22% - - 47° 91.9° 78.1° - - 878.0
6/21 11:50am 273 5 G 9 91° 22% - - 47° 91.9° 78.1° - - 878.0
6/21 11:40am 269 5 G 8 91° 22% - - 47° 91.9° 78.1° - - 878.0
6/21 11:30am 275 5 G 9 90° 23% - - 47° 91.3° 78.1° - - 878.0
6/21 11:20am 280 6 G 10 90° 22% - - 46° 91.3° 78.1° - - 877.0
6/21 11:10am 279 5 G 9 90° 21% - - 45° 91.1° 78.1° - - 877.0
6/21 11:00am 286 4 G 8 90° 19% - - 43° 90.4° 78.1° - - 876.0
6/21 10:50am 293 3 G 6 90° 18% - - 41° 90.4° 78.1° - - 876.0
6/21 10:40am 269 4 G 7 89° 19% - - 42° 89.5° 78.1° - - 876.0
6/21 10:30am 295 3 G 6 89° 19% - - 41° 89.5° 78.1° - - 876.0
6/21 10:20am 281 3 G 6 88° 21% - - 42° 88.3° 78.1° - - 876.0
6/21 10:10am 270 3 G 7 87° 23% - - 45° 87.8° 78.1° - - 877.0
6/21 10:00am 282 3 G 6 86° 23% - - 44° 87.8° 78.1° - - 877.0
6/21 9:50am 286 4 G 6 86° 23% - - 43° 87.8° 78.1° - - 876.0
6/21 9:40am 280 3 G 5 86° 23% - - 44° 87.8° 78.1° - - 876.0
6/21 9:30am 273 2 G 4 85° 22% - - 42° 87.8° 78.1° - - 876.0
6/21 9:20am 293 2 G 3 85° 23% - - 43° 87.8° 78.1° - - 876.0
6/21 9:10am 276 3 G 4 86° 23% - - 44° 87.8° 78.1° - - 876.0
6/21 9:00am 263 1 G 2 87° 16% - - 35° 87.8° 78.1° - - 874.0
6/21 8:50am 131 1 G 2 87° 15% - - 35° 87.8° 78.1° - - 874.0
6/21 8:40am 332 1 G 2 86° 15% - - 32° 87.6° 78.1° - - 873.0
6/21 8:30am 294 1 G 2 85° 16% - - 34° 87.6° 78.1° - - 873.0
6/21 8:20am 334 0 G 2 86° 15% - - 33° 87.6° 78.1° - - 873.0
6/21 8:10am 307 1 G 2 87° 14% - - 31° 87.6° 78.1° - - 872.0
6/21 8:00am 95 1 G 2 86° 18% - - 37° 87.5° 78.1° - - 873.0
6/21 7:50am 90 3 G 6 84° 18% - - 37° 85.7° 78.1° - - 873.0
6/21 7:40am 78 2 G 5 85° 14% - - 31° 85.7° 78.1° - - 871.0
6/21 7:30am 84 4 G 6 83° 14% - - 29° 84.2° 78.1° - - 871.0
6/21 7:20am 94 5 G 6 83° 13% - - 28° 84.2° 78.1° - - 870.0
6/21 7:10am 88 4 G 5 83° 12% - - 26° 83.9° 78.1° - - 869.0
6/21 7:00am 91 5 G 6 81° 13% - - 25° 83.6° 78.1° - - 869.0
6/21 6:50am 88 3 G 4 81° 12% - - 24° 83.6° 78.1° - - 869.0
6/21 6:40am 104 6 G 8 80° 13% - - 25° 83.6° 78.1° - - 869.0
6/21 6:30am 108 6 G 8 80° 13% - - 24° 83.6° 78.1° - - 869.0
6/21 6:20am 109 3 G 5 82° 11% - - 23° 83.6° 78.1° - - 869.0
6/21 6:10am 83 2 G 3 83° 11% - - 22° 83.6° 78.1° - - 869.0
6/21 6:00am 79 3 G 6 83° 10% - - 21° 83.6° 78.1° - - 868.0
6/21 5:50am 83 5 G 7 81° 11% - - 21° 82.9° 78.1° - - 868.0
6/21 5:40am 91 7 G 8 79° 12% - - 22° 82.9° 78.1° - - 868.0
6/21 5:30am 98 6 G 8 80° 11% - - 22° 82.9° 78.1° - - 868.0
6/21 5:20am 100 7 G 9 79° 12% - - 22° 82.9° 78.1° - - 868.0
6/21 5:10am 98 3 G 5 81° 11% - - 22° 82.9° 78.5° - - 869.0
6/21 5:00am 99 4 G 5 82° 10% - - 21° 82.9° 78.5° - - 868.0
6/21 4:50am 81 3 G 5 82° 10% - - 21° 82.9° 78.5° - - 869.0
6/21 4:40am 73 3 G 4 82° 11% - - 22° 82.7° 78.5° - - 868.0
6/21 4:30am 89 4 G 5 82° 11% - - 21° 82.6° 78.5° - - 869.0
6/21 4:20am 87 4 G 6 81° 12% - - 24° 82.6° 78.5° - - 869.0
6/21 4:10am 88 5 G 6 80° 13% - - 25° 82.6° 78.5° - - 869.0
6/21 4:00am 85 3 G 4 81° 13% - - 25° 82.6° 78.5° - - 869.0
6/21 3:50am 93 4 G 6 81° 13% - - 26° 82.6° 78.5° - - 869.0
6/21 3:40am 84 3 G 4 81° 13% - - 26° 82.6° 78.5° - - 869.0
6/21 3:30am 75 3 G 4 82° 14% - - 28° 82.6° 78.5° - - 870.0
6/21 3:20am 87 5 G 6 80° 15% - - 28° 82.6° 78.5° - - 870.0
6/21 3:10am 97 6 G 7 81° 15% - - 29° 82.6° 78.5° - - 870.0
6/21 3:00am 83 3 G 5 82° 15% - - 29° 82.6° 78.5° - - 870.0
6/21 2:50am 78 2 G 4 82° 15% - - 29° 82.6° 78.5° - - 870.0
6/21 2:40am 93 4 G 6 81° 16% - - 31° 82.6° 78.5° - - 870.0
6/21 2:30am 82 3 G 5 82° 16% - - 32° 82.6° 78.5° - - 871.0
6/21 2:20am 82 3 G 3 82° 16% - - 31° 82.6° 78.5° - - 870.0
6/21 2:10am 84 4 G 5 82° 15% - - 29° 82.6° 78.5° - - 870.0
6/21 2:00am 76 3 G 5 82° 17% - - 33° 82.6° 78.5° - - 871.0
6/21 1:50am 71 2 G 4 82° 18% - - 34° 82.6° 78.5° - - 871.0
6/21 1:40am 75 4 G 6 80° 22% - - 37° 82.4° 78.5° - - 872.0
6/21 1:30am 88 5 G 7 81° 19% - - 35° 82.4° 79.1° - - 872.0
6/21 1:20am 77 3 G 4 82° 20% - - 37° 82.4° 79.7° - - 872.0
6/21 1:10am 78 2 G 4 81° 21% - - 38° 82.4° 79.7° - - 872.0
6/21 1:00am 84 2 G 5 81° 23% - - 40° 82.4° 79.7° - - 873.0
6/21 12:50am 92 5 G 6 80° 24% - - 40° 82.4° 79.9° - - 873.0
6/21 12:40am 78 3 G 6 82° 23% - - 40° 82.4° 80.1° - - 873.0
6/21 12:30am 49 4 G 4 81° 21% - - 37° 82.4° 80.1° - - 872.0
6/21 12:20am 82 3 G 3 81° 22% - - 38° 82.4° 80.1° - - 873.0
6/21 12:10am 72 2 G 3 81° 25% - - 42° 82.4° 80.6° - - 874.0
6/21 12:00am 35 1 G 3 82° 26% - - 44° 94.3° 75.3° - - 874.0
6/20 11:50pm 64 3 G 4 82° 26% - - 43° 94.3° 75.3° - - 874.0
6/20 11:40pm 68 2 G 2 82° 26% - - 43° 94.3° 75.3° - - 874.0
6/20 11:30pm 59 1 G 2 82° 25% - - 43° 94.3° 75.3° - - 874.0
6/20 11:20pm 78 3 G 4 83° 24% - - 42° 94.3° 75.3° - - 874.0
6/20 11:10pm 75 4 G 4 83° 25% - - 44° 94.3° 75.3° - - 875.0
6/20 11:00pm 79 4 G 5 83° 28% - - 46° 94.3° 75.3° - - 875.0
6/20 10:50pm 85 4 G 5 83° 27% - - 46° 94.3° 75.3° - - 875.0
6/20 10:40pm 76 2 G 3 83° 27% - - 45° 94.3° 75.3° - - 875.0
6/20 10:30pm 75 2 G 3 83° 27% - - 45° 94.3° 75.3° - - 875.0
6/20 10:20pm 81 2 G 3 83° 27% - - 45° 94.3° 75.3° - - 875.0
6/20 10:10pm 85 3 G 4 83° 28% - - 46° 94.3° 75.3° - - 876.0
6/20 10:00pm 76 3 G 4 82° 29% - - 47° 94.3° 75.3° - - 876.0
6/20 9:50pm 94 4 G 5 82° 31% - - 48° 94.3° 75.3° - - 877.0
6/20 9:40pm 84 4 G 5 82° 31% - - 48° 94.3° 75.3° - - 877.0
6/20 9:30pm 80 4 G 6 82° 32% - - 49° 94.3° 75.3° - - 877.0
6/20 9:20pm 89 5 G 6 82° 32% - - 50° 94.3° 75.3° - - 877.0
6/20 9:10pm 89 4 G 6 83° 32% - - 50° 94.3° 75.3° - - 878.0
6/20 9:00pm 93 4 G 5 83° 32% - - 51° 94.3° 75.3° - - 878.0
6/20 8:50pm 92 4 G 5 84° 33% - - 51° 94.3° 75.3° - - 878.0
6/20 8:40pm 90 4 G 4 83° 33% - - 51° 94.3° 75.3° - - 878.0
6/20 8:30pm 87 4 G 4 83° 34% - - 52° 94.3° 75.3° - - 879.0
6/20 8:20pm 88 3 G 4 83° 35% - - 53° 94.3° 75.3° - - 880.0
6/20 8:10pm 95 4 G 5 83° 36% - - 53° 94.3° 75.3° - - 880.0
6/20 8:00pm 98 2 G 4 85° 32% - - 52° 94.3° 75.3° - - 879.0
6/20 7:50pm 87 0 G 2 87° 30% - - 52° 94.3° 75.3° - - 879.0
6/20 7:40pm 277 0 G 1 88° 29% - - 51° 94.3° 75.3° - - 879.0
6/20 7:30pm 284 1 G 2 88° 29% - - 51° 94.3° 75.3° - - 879.0
6/20 7:20pm 284 1 G 3 88° 29% - - 51° 94.3° 75.3° - - 880.0
6/20 7:10pm 282 2 G 4 87° 29% - - 51° 94.3° 75.3° - - 880.0
6/20 7:00pm 263 3 G 5 87° 29% - - 51° 94.3° 75.3° - - 880.0
6/20 6:50pm 283 3 G 6 87° 29% - - 51° 94.3° 75.3° - - 880.0
6/20 6:40pm 273 4 G 6 88° 28% - - 51° 94.3° 75.3° - - 881.0
6/20 6:30pm 266 5 G 7 88° 28% - - 51° 94.3° 75.3° - - 881.0
6/20 6:20pm 256 4 G 7 89° 28% - - 51° 94.3° 75.3° - - 881.0
6/20 6:10pm 268 5 G 8 89° 27% - - 51° 94.3° 75.3° - - 881.0
6/20 6:00pm 277 4 G 7 90° 26% - - 51° 94.3° 75.3° - - 881.0